Time;durP1;ratioP1;P1;durP2;ratioP2;P2;SDS_P1;SDS_P2;PMS_P1;PMS_P2;Temp;Humidity;BMP_temperature;BMP_pressure;BME280_temperature;BME280_humidity;BME280_pressure;Samples;Min_cycle;Max_cycle;Signal;HPM_P1;HPM_P2
2023/02/23 00:01:18;;;;;;;29.48;17.35;;;8.70;99.90;;;7.71;100.00;97001.81;5030052;28;20893;-71
2023/02/23 00:03:47;;;;;;;32.05;18.42;;;8.70;99.90;;;7.73;100.00;97004.22;5029833;28;20419;-73
2023/02/23 00:06:14;;;;;;;30.67;17.70;;;8.70;99.90;;;7.72;100.00;97003.41;5030051;28;20406;-73
2023/02/23 00:08:41;;;;;;;30.15;18.33;;;8.70;99.90;;;7.72;100.00;97011.31;5028494;28;20457;-73
2023/02/23 00:11:12;;;;;;;31.75;18.05;;;8.70;99.90;;;7.71;100.00;97001.81;5028441;28;20887;-73
2023/02/23 00:13:40;;;;;;;31.58;18.92;;;8.70;99.90;;;7.71;100.00;97001.03;5029732;28;20628;-73
2023/02/23 00:16:11;;;;;;;29.08;18.85;;;8.70;99.90;;;7.74;100.00;96995.28;5029880;28;20399;-73
2023/02/23 00:18:43;;;;;;;31.65;18.90;;;8.70;99.90;;;7.78;100.00;96999.00;5044124;22;20819;-80
2023/02/23 00:21:13;;;;;;;32.47;18.27;;;8.70;99.90;;;7.78;100.00;97002.44;5033655;28;20971;-81
2023/02/23 00:23:41;;;;;;;37.17;20.40;;;8.80;99.90;;;7.75;100.00;96997.66;5033054;28;20423;-81
2023/02/23 00:26:07;;;;;;;31.70;19.27;;;8.70;99.90;;;7.74;100.00;97003.97;5033583;28;20434;-80
2023/02/23 00:28:33;;;;;;;34.47;20.15;;;8.80;99.90;;;7.71;100.00;96996.56;5033553;28;20450;-80
2023/02/23 00:31:01;;;;;;;32.85;19.83;;;8.70;99.90;;;7.70;100.00;97002.06;5033534;28;20803;-80
2023/02/23 00:33:29;;;;;;;38.87;22.03;;;8.70;99.90;;;7.69;100.00;96997.81;5033356;28;20494;-80
2023/02/23 00:35:55;;;;;;;48.20;24.58;;;8.70;99.90;;;7.69;100.00;96997.81;5033492;28;20872;-76
2023/02/23 00:38:22;;;;;;;49.20;26.77;;;8.70;99.90;;;7.64;100.00;97000.41;5032116;28;20422;-76
2023/02/23 00:40:48;;;;;;;47.22;25.13;;;8.60;99.90;;;7.59;100.00;96995.06;5033326;28;20877;-76
2023/02/23 00:43:15;;;;;;;53.10;27.38;;;8.60;99.90;;;7.59;100.00;96997.69;5032944;28;20419;-76
2023/02/23 00:45:41;;;;;;;62.15;30.10;;;8.60;99.90;;;7.58;100.00;96990.81;5033215;28;20919;-76
2023/02/23 00:48:09;;;;;;;62.33;28.08;;;8.60;99.90;;;7.57;100.00;96997.94;5033115;28;20408;-77
2023/02/23 00:50:37;;;;;;;59.45;29.42;;;8.60;99.90;;;7.57;100.00;96997.94;5033106;28;20464;-77
2023/02/23 00:53:03;;;;;;;56.55;28.42;;;8.50;99.90;;;7.55;100.00;96981.56;5032797;28;20453;-77
2023/02/23 00:55:31;;;;;;;60.22;28.45;;;8.60;99.90;;;7.58;100.00;96991.63;5032998;28;20403;-77
2023/02/23 00:57:57;;;;;;;56.20;26.80;;;8.60;99.90;;;7.61;100.00;96991.13;5032812;28;20407;-77
2023/02/23 01:00:24;;;;;;;74.60;34.67;;;8.60;99.90;;;7.58;100.00;96985.56;5031685;28;20407;-77
2023/02/23 01:02:50;;;;;;;77.78;36.33;;;8.60;99.90;;;7.53;100.00;96991.53;5032568;28;21050;-77
2023/02/23 01:05:16;;;;;;;76.35;34.50;;;8.50;99.90;;;7.50;100.00;96989.41;5032815;28;20958;-77
2023/02/23 01:07:45;;;;;;;85.05;38.00;;;8.50;99.90;;;7.49;100.00;96984.38;5032693;28;20453;-79
2023/02/23 01:10:21;;;;;;;97.82;40.67;;;8.50;99.90;;;7.45;100.00;96991.94;5032729;28;20418;-78
2023/02/23 01:12:50;;;;;;;95.75;41.63;;;8.40;99.90;;;7.40;100.00;96981.34;5032217;28;20912;-79
2023/02/23 01:15:18;;;;;;;107.33;43.93;;;8.40;99.90;;;7.36;100.00;96982.88;5032730;28;20777;-79
2023/02/23 01:17:45;;;;;;;121.28;46.25;;;8.40;99.90;;;7.36;100.00;96988.94;5032576;28;20419;-78
2023/02/23 01:20:16;;;;;;;128.15;46.15;;;8.40;99.90;;;7.36;100.00;96986.31;5032565;28;20486;-78
2023/02/23 01:22:43;;;;;;;117.60;40.88;;;8.40;99.90;;;7.33;100.00;96986.78;5032093;28;20894;-78
2023/02/23 01:25:11;;;;;;;130.45;46.42;;;8.30;99.90;;;7.35;100.00;96987.34;5032375;28;20403;-78
2023/02/23 01:27:37;;;;;;;114.05;42.15;;;8.30;99.90;;;7.36;100.00;96988.94;5032409;28;20407;-79
2023/02/23 01:30:08;;;;;;;120.80;43.55;;;8.30;99.90;;;7.37;100.00;96987.88;5031787;28;20407;-79
2023/02/23 01:32:35;;;;;;;138.52;48.50;;;8.40;99.90;;;7.43;100.00;96985.34;5032030;28;20395;-79
2023/02/23 01:35:03;;;;;;;138.75;48.33;;;8.40;99.90;;;7.37;100.00;96984.44;5032239;28;20734;-79
2023/02/23 01:37:30;;;;;;;150.85;47.58;;;8.40;99.90;;;7.34;100.00;96980.47;5032221;28;20406;-79
2023/02/23 01:39:56;;;;;;;153.65;51.30;;;8.30;99.90;;;7.36;100.00;96983.66;5032252;28;20426;-80
2023/02/23 01:42:22;;;;;;;145.23;45.97;;;8.30;99.90;;;7.34;100.00;96974.41;5032036;28;20900;-80
2023/02/23 01:45:29;;;;;;;143.33;45.83;;;8.30;99.90;;;7.35;100.00;96976.81;5032097;28;20421;-79
2023/02/23 01:48:00;;;;;;;149.80;48.25;;;8.30;99.90;;;7.37;100.00;96974.69;5030769;28;20403;-79
2023/02/23 01:50:36;;;;;;;165.07;53.63;;;8.40;99.90;;;7.39;100.00;96975.28;5032056;28;20498;-79
2023/02/23 01:53:02;;;;;;;165.65;49.10;;;8.40;99.90;;;7.37;100.00;96969.44;5031633;28;20407;-78
2023/02/23 01:55:28;;;;;;;171.60;57.60;;;8.40;99.90;;;7.42;100.00;96970.56;5031853;28;20445;-79
2023/02/23 01:58:03;;;;;;;148.50;47.45;;;8.40;99.90;;;7.36;100.00;96975.78;5031821;28;20764;-78
2023/02/23 02:00:35;;;;;;;165.40;49.97;;;8.40;99.90;;;7.38;100.00;96972.88;5031883;28;20434;-79
2023/02/23 02:03:07;;;;;;;160.93;50.22;;;8.40;99.90;;;7.43;100.00;96967.69;5031454;28;20399;-79
2023/02/23 02:05:37;;;;;;;205.55;55.58;;;8.40;99.90;;;7.45;100.00;96970.88;5031830;28;20494;-77
2023/02/23 02:08:06;;;;;;;172.85;48.83;;;8.50;99.90;;;7.43;100.00;96965.06;5031662;28;20403;-77
2023/02/23 02:10:46;;;;;;;181.93;50.22;;;8.40;99.90;;;7.45;100.00;96964.81;5031675;28;20489;-78
2023/02/23 02:13:20;;;;;;;200.55;55.83;;;8.40;99.90;;;7.46;100.00;96967.19;5031261;28;20399;-79
2023/02/23 02:16:19;;;;;;;173.50;54.92;;;8.50;99.90;;;7.47;100.00;96962.72;5031459;28;20414;-78
2023/02/23 02:19:36;;;;;;;199.55;55.38;;;8.50;99.90;;;7.51;100.00;96966.50;5031310;28;20399;-79
2023/02/23 02:23:08;;;;;;;192.02;53.67;;;8.50;99.90;;;7.48;100.00;96959.06;5030506;28;20415;-78
2023/02/23 02:25:54;;;;;;;235.60;58.58;;;8.50;99.90;;;7.51;100.00;96961.22;5003829;28;20411;-78
2023/02/23 02:28:46;;;;;;;222.70;55.28;;;8.50;99.90;;;7.50;100.00;96951.72;5031304;28;20461;-78
2023/02/23 02:31:55;;;;;;;244.68;60.15;;;8.50;99.90;;;7.51;100.00;96951.50;5031267;28;20403;-78
2023/02/23 02:35:00;;;;;;;216.50;57.28;;;8.50;99.90;;;7.53;100.00;96954.66;5031110;28;20796;-77
2023/02/23 02:37:42;;;;;;;211.40;53.45;;;8.60;99.90;;;7.50;100.00;96949.91;5031020;28;20434;-77
2023/02/23 02:40:21;;;;;;;169.00;48.00;;;8.50;99.90;;;7.50;100.00;96949.91;5030078;28;20502;-77
2023/02/23 02:43:02;;;;;;;192.75;49.10;;;8.50;99.90;;;7.52;100.00;96947.78;5030636;28;20927;-76
2023/02/23 02:45:40;;;;;;;165.43;45.08;;;8.50;99.90;;;7.55;100.00;96946.53;5030950;28;20466;-76
2023/02/23 02:48:19;;;;;;;223.52;52.67;;;8.60;99.90;;;7.59;100.00;96945.00;5030932;28;20387;-77
2023/02/23 02:50:52;;;;;;;155.02;43.97;;;8.60;99.90;;;7.59;100.00;96942.38;5030866;28;20434;-77
2023/02/23 02:53:27;;;;;;;173.23;45.45;;;8.60;99.90;;;7.57;100.00;96942.63;5030769;28;20494;-77
2023/02/23 02:55:58;;;;;;;244.18;52.05;;;8.60;99.90;;;7.60;100.00;96943.94;5030868;28;20425;-76
2023/02/23 02:58:26;;;;;;;212.43;49.08;;;8.60;99.90;;;7.60;100.00;96946.59;5030861;28;20403;-77
2023/02/23 04:17:42;;;;;;;65.83;21.50;;;8.50;99.90;;;7.48;100.00;96956.44;5033650;28;20892;-77
2023/02/23 04:20:11;;;;;;;59.97;21.55;;;8.50;99.90;;;7.48;100.00;96948.53;5033832;28;20399;-78
2023/02/23 04:22:37;;;;;;;62.15;21.85;;;8.40;99.90;;;7.48;100.00;96954.59;5033563;28;21015;-77
2023/02/23 04:25:07;;;;;;;70.93;21.98;;;8.40;99.90;;;7.49;100.00;96947.50;5033771;28;20509;-77
2023/02/23 04:27:34;;;;;;;67.88;22.73;;;8.50;99.90;;;7.48;100.00;96945.91;5033841;28;20486;-77
2023/02/23 04:30:02;;;;;;;63.65;20.63;;;8.50;99.90;;;7.43;100.00;96946.63;5033675;28;20404;-77
2023/02/23 04:32:29;;;;;;;66.18;22.00;;;8.40;99.90;;;7.45;100.00;96944.53;5033313;28;20411;-77
2023/02/23 04:34:56;;;;;;;71.57;21.77;;;8.40;99.90;;;7.46;100.00;96950.59;5033616;28;20434;-77
2023/02/23 04:37:22;;;;;;;60.17;20.25;;;8.40;99.90;;;7.48;100.00;96949.34;5033349;28;20422;-77
2023/02/23 04:39:49;;;;;;;74.80;24.30;;;8.50;99.90;;;7.50;100.00;96952.53;5032197;28;20426;-77
2023/02/23 04:42:15;;;;;;;74.13;22.83;;;8.50;99.90;;;7.48;100.00;96959.88;5033207;28;20418;-77
2023/02/23 04:44:41;;;;;;;79.97;23.53;;;8.50;99.90;;;7.47;100.00;96958.25;5033194;28;20431;-77
2023/02/23 04:47:07;;;;;;;53.83;21.00;;;8.50;99.90;;;7.46;100.00;96954.03;5033301;28;20434;-78
2023/02/23 04:49:33;;;;;;;67.88;22.70;;;8.40;99.90;;;7.48;100.00;96953.81;5033232;28;20411;-77
2023/02/23 04:52:00;;;;;;;75.53;22.57;;;8.50;99.90;;;7.47;100.00;96953.00;5032970;28;20409;-78
2023/02/23 04:54:26;;;;;;;68.80;21.30;;;8.50;99.90;;;7.47;100.00;96953.00;5033207;28;20756;-78
2023/02/23 04:56:52;;;;;;;74.57;23.38;;;8.50;99.90;;;7.49;100.00;96960.66;5033170;28;20406;-77
2023/02/23 04:59:18;;;;;;;72.57;23.35;;;8.50;99.90;;;7.47;100.00;96960.91;5033072;28;20417;-78
2023/02/23 05:01:44;;;;;;;68.63;22.95;;;8.50;99.90;;;7.48;100.00;96957.22;5032833;28;20399;-77
2023/02/23 05:04:10;;;;;;;64.87;23.13;;;8.50;99.90;;;7.46;100.00;96959.31;5032004;28;20522;-77
2023/02/23 05:06:36;;;;;;;73.00;22.73;;;8.40;99.90;;;7.46;100.00;96958.50;5033019;28;20457;-77
2023/02/23 05:09:05;;;;;;;75.63;23.55;;;8.40;99.90;;;7.44;100.00;96957.97;5032898;28;20415;-77
2023/02/23 05:11:32;;;;;;;56.72;20.98;;;8.40;99.90;;;7.43;100.00;96953.75;5032630;28;20402;-78
2023/02/23 05:13:58;;;;;;;53.23;19.43;;;8.40;99.90;;;7.43;100.00;96956.38;5032794;28;20461;-78
2023/02/23 05:16:24;;;;;;;79.82;23.02;;;8.40;99.90;;;7.43;100.00;96956.38;5032864;28;20407;-78
2023/02/23 05:18:49;;;;;;;90.20;24.88;;;8.40;99.90;;;7.44;100.00;96960.59;5032602;28;20426;-78
2023/02/23 05:21:15;;;;;;;87.80;24.70;;;8.40;99.90;;;7.42;100.00;96962.66;5032499;28;20506;-78
2023/02/23 05:23:41;;;;;;;74.00;24.27;;;8.40;99.90;;;7.42;100.00;96957.41;5032403;28;20418;-78
2023/02/23 05:26:11;;;;;;;66.72;22.08;;;8.40;99.90;;;7.39;100.00;96958.66;5032594;28;20443;-77
2023/02/23 05:28:40;;;;;;;60.83;21.30;;;8.40;99.90;;;7.39;100.00;96964.75;5032581;28;20869;-77
2023/02/23 05:31:06;;;;;;;76.35;24.27;;;8.40;99.90;;;7.42;100.00;96960.84;5032402;28;20417;-78
2023/02/23 05:33:34;;;;;;;77.43;24.20;;;8.40;99.90;;;7.41;100.00;96958.44;5030950;28;20400;-78
2023/02/23 05:36:03;;;;;;;68.47;22.10;;;8.40;99.90;;;7.39;100.00;96964.75;5032488;28;20400;-78
2023/02/23 05:38:29;;;;;;;62.17;20.10;;;8.40;99.90;;;7.41;100.00;96958.44;5032227;28;20400;-78
2023/02/23 05:40:54;;;;;;;75.90;23.00;;;8.40;99.90;;;7.41;100.00;96967.13;5030938;28;20525;-78
2023/02/23 05:43:22;;;;;;;80.35;22.77;;;8.40;99.90;;;7.39;100.00;96966.56;5032006;28;20406;-77
2023/02/23 05:45:48;;;;;;;77.63;22.55;;;8.40;99.90;;;7.38;100.00;96972.88;5031029;28;20419;-77
2023/02/23 05:48:14;;;;;;;90.38;25.17;;;8.40;99.90;;;7.37;100.00;96969.44;5030949;28;20864;-77
2023/02/23 05:50:39;;;;;;;98.95;23.88;;;8.40;99.90;;;7.33;100.00;96965.69;5032263;28;20403;-78
2023/02/23 05:53:05;;;;;;;92.03;23.30;;;8.40;99.90;;;7.34;100.00;96963.88;5031871;28;20814;-77
2023/02/23 05:55:31;;;;;;;92.72;26.40;;;8.30;99.90;;;7.35;100.00;96968.91;5032157;28;20407;-78
2023/02/23 05:57:57;;;;;;;93.60;25.23;;;8.30;99.90;;;7.30;100.00;96963.53;5032176;28;20403;-77
2023/02/23 06:00:25;;;;;;;90.57;23.90;;;8.30;99.90;;;7.26;100.00;96964.28;5032105;28;20403;-78
2023/02/23 06:02:51;;;;;;;86.15;24.20;;;8.30;99.90;;;7.24;100.00;96963.69;5031767;28;20417;-77
2023/02/23 06:05:17;;;;;;;93.25;25.98;;;8.20;99.90;;;7.21;100.00;96967.63;5031825;28;20924;-77
2023/02/23 06:07:44;;;;;;;88.75;24.77;;;8.20;99.90;;;7.20;100.00;96963.41;5031842;28;20453;-77
2023/02/23 06:10:11;;;;;;;103.55;25.65;;;8.20;99.90;;;7.19;100.00;96968.91;5031867;28;20877;-77
2023/02/23 06:12:36;;;;;;;82.93;22.03;;;8.20;99.90;;;7.19;100.00;96967.06;5031475;28;20407;-77
2023/02/23 06:15:03;;;;;;;90.70;21.67;;;8.20;99.90;;;7.22;100.00;96971.03;5031698;28;20540;-77
2023/02/23 06:17:31;;;;;;;107.13;25.73;;;8.20;99.90;;;7.23;100.00;96972.63;5031607;28;20736;-78
2023/02/23 06:19:58;;;;;;;101.97;27.25;;;8.20;99.90;;;7.22;100.00;96976.31;5045755;22;20904;-71
2023/02/23 06:22:24;;;;;;;80.65;23.42;;;8.20;99.90;;;7.16;100.00;96974.63;5030718;28;20407;-71
2023/02/23 06:24:50;;;;;;;89.53;23.77;;;8.20;99.90;;;7.16;100.00;96975.44;5031322;28;20429;-71
2023/02/23 06:27:16;;;;;;;92.50;25.50;;;8.20;99.90;;;7.20;100.00;96981.81;5031342;28;20496;-71
2023/02/23 06:29:42;;;;;;;96.18;27.55;;;8.20;99.90;;;7.21;100.00;96985.25;5031129;28;20773;-71
2023/02/23 06:32:08;;;;;;;108.63;27.53;;;8.20;99.90;;;7.22;100.00;96981.56;5030936;28;20411;-71
2023/02/23 06:34:35;;;;;;;97.67;25.20;;;8.20;99.90;;;7.18;100.00;96977.84;5031116;28;20438;-71
2023/02/23 06:37:01;;;;;;;96.18;23.67;;;8.20;99.90;;;7.20;100.00;96984.47;5031211;28;20966;-71
2023/02/23 06:39:27;;;;;;;64.82;20.33;;;8.20;99.90;;;7.23;100.00;96991.84;5031116;28;20411;-72
2023/02/23 06:41:53;;;;;;;96.93;24.50;;;8.20;99.90;;;7.27;100.00;96984.28;5030954;28;20513;-71
2023/02/23 06:44:18;;;;;;;109.10;27.45;;;8.30;99.90;;;7.28;100.00;96994.59;5030972;28;20537;-71
2023/02/23 06:46:44;;;;;;;110.18;26.38;;;8.30;99.90;;;7.24;100.00;96990.03;5030923;28;20442;-71
2023/02/23 06:49:11;;;;;;;94.80;25.65;;;8.20;99.90;;;7.24;100.00;96992.66;5030990;28;20404;-71
2023/02/23 06:51:38;;;;;;;113.53;26.55;;;8.20;99.90;;;7.23;100.00;97005.03;5030721;28;20399;-71
2023/02/23 06:54:04;;;;;;;131.35;29.63;;;8.20;99.90;;;7.21;100.00;97006.31;5030837;28;20406;-71
2023/02/23 06:56:30;;;;;;;100.07;25.67;;;8.20;99.90;;;7.20;100.00;97002.09;5030848;28;20414;-70
2023/02/23 06:58:56;;;;;;;75.82;20.73;;;8.20;99.90;;;7.21;100.00;97007.13;5030810;28;20486;-70
2023/02/23 07:01:21;;;;;;;108.27;28.97;;;8.20;99.90;;;7.26;100.00;97009.03;5030551;28;20411;-71
2023/02/23 07:03:47;;;;;;;111.53;27.52;;;8.30;99.90;;;7.23;100.00;97007.66;5030633;28;20577;-71
2023/02/23 07:06:13;;;;;;;98.93;25.52;;;8.20;99.90;;;7.23;100.00;97007.66;5030749;28;20481;-71
2023/02/23 07:08:41;;;;;;;63.95;21.02;;;8.30;99.90;;;7.28;100.00;97007.75;5029320;28;20406;-71
2023/02/23 07:11:08;;;;;;;116.60;29.58;;;8.30;99.90;;;7.34;100.00;97016.53;5030429;28;20900;-71
2023/02/23 07:13:35;;;;;;;94.32;24.92;;;8.30;99.90;;;7.31;100.00;97012.53;5030419;28;20427;-71
2023/02/23 07:16:01;;;;;;;108.10;27.73;;;8.30;99.90;;;7.33;100.00;97022.81;5030487;28;20399;-71
2023/02/23 07:18:27;;;;;;;108.97;28.08;;;8.30;99.90;;;7.33;100.00;97018.34;5030146;28;20434;-71
2023/02/23 07:20:53;;;;;;;104.80;27.63;;;8.30;99.90;;;7.33;100.00;97023.63;5030313;28;20494;-71
2023/02/23 07:23:19;;;;;;;99.72;26.73;;;8.30;99.90;;;7.37;100.00;97023.94;5030119;28;20407;-71
2023/02/23 07:25:49;;;;;;;107.50;27.75;;;8.40;99.90;;;7.39;100.00;97027.94;5030118;28;20414;-72
2023/02/23 07:28:15;;;;;;;111.50;27.98;;;8.40;99.90;;;7.43;100.00;97027.47;5029872;28;20904;-71
2023/02/23 07:30:41;;;;;;;98.93;25.67;;;8.40;99.90;;;7.50;100.00;97036.00;5030443;28;20453;-71
2023/02/23 07:33:07;;;;;;;102.70;26.90;;;8.50;99.90;;;7.56;100.00;97032.41;5028712;28;20415;-71
2023/02/23 07:35:33;;;;;;;74.85;23.13;;;8.50;99.90;;;7.63;100.00;97040.94;5030327;28;20453;-71
2023/02/23 07:37:59;;;;;;;95.28;26.77;;;8.60;99.90;;;7.68;100.00;97035.75;5030176;28;20411;-71
2023/02/23 07:40:25;;;;;;;95.60;26.33;;;8.60;99.90;;;7.73;100.00;97035.84;5030229;28;20403;-71
2023/02/23 07:42:54;;;;;;;94.22;26.10;;;8.70;99.90;;;7.77;100.00;97042.19;5029886;28;20441;-71
2023/02/23 07:45:20;;;;;;;98.75;26.48;;;8.70;99.90;;;7.79;100.00;97040.13;5030057;28;20422;-71
2023/02/23 07:47:46;;;;;;;77.13;23.58;;;8.70;99.90;;;7.84;100.00;97037.56;5030099;28;20500;-71
2023/02/23 07:50:12;;;;;;;72.75;22.52;;;8.80;99.90;;;7.89;100.00;97032.38;5030304;28;20492;-71
2023/02/23 07:52:41;;;;;;;76.82;23.48;;;8.80;99.90;;;7.93;100.00;97035.31;5029850;28;20433;-71
2023/02/23 07:55:09;;;;;;;66.80;22.17;;;8.90;99.90;;;7.98;100.00;97033.53;5030161;28;20409;-71
2023/02/23 07:57:35;;;;;;;69.80;21.63;;;8.90;99.90;;;8.03;100.00;97043.38;5030127;28;20888;-71
2023/02/23 08:00:04;;;;;;;55.20;19.85;;;9.00;99.90;;;8.09;100.00;97037.13;5029948;28;20807;-72
2023/02/23 08:02:31;;;;;;;55.30;19.42;;;9.00;99.90;;;8.15;100.00;97042.22;5029657;28;20399;-72
2023/02/23 08:04:57;;;;;;;58.92;19.80;;;9.10;99.90;;;8.21;100.00;97031.72;5028532;28;20425;-72
2023/02/23 08:07:24;;;;;;;54.85;19.27;;;9.10;99.90;;;8.29;100.00;97047.13;5028846;28;20415;-72
2023/02/23 08:09:50;;;;;;;49.05;19.02;;;9.20;99.90;;;8.11;100.00;97050.88;5029842;28;20823;-73
2023/02/23 08:12:16;;;;;;;47.83;18.10;;;9.00;99.90;;;8.13;100.00;97043.50;5029700;28;20878;-72
2023/02/23 08:14:43;;;;;;;45.42;17.10;;;9.00;99.90;;;8.18;100.00;97045.41;5029966;28;20403;-72
2023/02/23 08:17:10;;;;;;;47.80;17.50;;;9.10;99.90;;;8.16;100.00;97038.53;5028578;28;20461;-72
2023/02/23 08:19:36;;;;;;;46.58;17.33;;;9.10;99.90;;;8.29;100.00;97047.13;5029594;28;20927;-72
2023/02/23 08:22:02;;;;;;;42.50;16.60;;;9.20;99.90;;;8.39;100.00;97042.03;5029500;28;20415;-72
2023/02/23 08:24:29;;;;;;;45.17;16.50;;;9.30;99.90;;;8.50;100.00;97049.00;5029791;28;20426;-72
2023/02/23 08:26:55;;;;;;;49.13;17.13;;;9.40;99.90;;;8.53;100.00;97048.53;5029933;28;20404;-72
2023/02/23 08:29:21;;;;;;;35.05;14.18;;;9.40;99.90;;;8.59;100.00;97046.72;5029626;28;20449;-72
2023/02/23 08:31:47;;;;;;;32.60;14.20;;;9.40;99.90;;;8.53;100.00;97049.31;5029476;28;20812;-72
2023/02/23 08:34:15;;;;;;;30.70;13.50;;;9.40;99.90;;;8.57;100.00;97040.94;5028399;28;20415;-72
2023/02/23 08:36:42;;;;;;;30.20;13.40;;;9.40;99.90;;;8.59;100.00;97046.72;5029787;28;20399;-72
2023/02/23 08:39:08;;;;;;;26.15;12.80;;;9.50;99.90;;;8.79;100.00;97039.88;5030668;28;20468;-72
2023/02/23 08:41:34;;;;;;;29.67;13.10;;;9.60;99.90;;;8.86;100.00;97037.81;5033170;28;20399;-72
2023/02/23 08:44:00;;;;;;;26.63;11.65;;;9.80;99.90;;;8.71;100.00;97042.16;5033223;28;20902;-73
2023/02/23 08:46:26;;;;;;;28.95;12.68;;;9.60;99.90;;;8.81;100.00;97047.50;5033318;28;20457;-71
2023/02/23 08:48:52;;;;;;;24.35;11.38;;;9.70;99.90;;;8.88;100.00;97046.28;5032066;28;20422;-71
2023/02/23 08:51:19;;;;;;;24.97;12.10;;;9.70;99.90;;;8.87;100.00;97043.91;5033163;28;20414;-71
2023/02/23 08:53:45;;;;;;;25.42;11.35;;;9.70;99.90;;;8.82;100.00;97051.75;5033109;28;20864;-72
2023/02/23 08:56:12;;;;;;;29.23;12.18;;;9.70;99.90;;;8.83;100.00;97056.78;5033135;28;20399;-72
2023/02/23 08:58:38;;;;;;;24.92;11.88;;;9.60;99.90;;;8.88;100.00;97050.75;5033057;28;20399;-71
2023/02/23 09:01:04;;;;;;;25.42;11.95;;;9.70;99.90;;;8.97;100.00;97053.75;5032923;28;20399;-72
2023/02/23 09:03:31;;;;;;;25.88;11.27;;;9.80;99.90;;;8.92;100.00;97046.59;5032828;28;20406;-71
2023/02/23 09:06:06;;;;;;;22.23;10.95;;;9.80;99.90;;;9.01;100.00;97049.59;5032991;28;20406;-71
2023/02/23 09:08:33;;;;;;;25.67;10.55;;;9.80;99.90;;;8.95;100.00;97059.28;5032764;28;20494;-71
2023/02/23 09:10:59;;;;;;;22.35;9.80;;;9.80;99.90;;;8.85;100.00;97057.34;5032741;28;20410;-71
2023/02/23 09:13:25;;;;;;;19.97;10.10;;;9.70;99.90;;;9.09;100.00;97060.50;5031382;28;20956;-71
2023/02/23 09:15:51;;;;;;;24.43;9.50;;;9.80;99.90;;;9.21;100.00;97058.50;5032787;28;20513;-71
2023/02/23 09:18:17;;;;;;;21.23;9.30;;;10.00;99.90;;;9.31;100.00;97058.59;5032531;28;20418;-72
2023/02/23 09:20:44;;;;;;;17.52;8.25;;;10.10;99.90;;;9.43;100.00;97060.25;5032703;28;20403;-72
2023/02/23 09:23:10;;;;;;;19.38;7.75;;;10.30;99.90;;;9.53;100.00;97065.66;5032405;28;20485;-72
2023/02/23 09:25:42;;;;;;;23.40;8.73;;;10.40;99.90;;;9.59;100.00;97059.34;5032507;28;20896;-72
2023/02/23 09:28:10;;;;;;;16.13;7.72;;;10.50;99.90;;;9.55;100.00;97059.03;5032582;28;20825;-72
2023/02/23 09:30:38;;;;;;;17.92;8.57;;;10.30;99.90;;;9.58;100.00;97061.19;5032393;28;20395;-72
2023/02/23 09:33:06;;;;;;;21.25;8.32;;;10.50;99.90;;;9.69;100.00;97052.31;5032173;28;20433;-71
2023/02/23 09:35:33;;;;;;;16.55;7.65;;;10.50;99.90;;;9.67;100.00;97056.25;5032449;28;20540;-72
2023/02/23 09:37:59;;;;;;;13.55;6.82;;;10.50;99.90;;;9.73;100.00;97054.44;5032239;28;20469;-72
2023/02/23 09:40:28;;;;;;;18.02;7.80;;;10.60;99.90;;;9.78;100.00;97062.38;5030922;28;20411;-72
2023/02/23 09:43:01;;;;;;;20.63;8.05;;;10.60;99.90;;;9.77;100.00;97058.97;5031995;28;20399;-72
2023/02/23 09:45:37;;;;;;;14.67;6.87;;;10.70;99.90;;;9.78;100.00;97059.75;5032173;28;20541;-72
2023/02/23 09:48:15;;;;;;;11.73;6.63;;;10.60;99.90;;;9.81;100.00;97057.41;5032235;28;20409;-72
2023/02/23 09:50:47;;;;;;;14.05;6.93;;;10.60;99.90;;;9.92;100.00;97058.28;5031780;28;20399;-71
2023/02/23 09:53:28;;;;;;;11.63;6.55;;;10.70;99.90;;;10.13;100.00;97060.00;5031757;28;20876;-71
2023/02/23 09:55:57;;;;;;;13.27;6.38;;;10.90;99.90;;;10.36;100.00;97051.69;5030845;28;20431;-71
2023/02/23 09:58:26;;;;;;;12.80;5.97;;;11.20;99.90;;;10.63;100.00;97056.03;5031899;28;20437;-71
2023/02/23 10:01:20;;;;;;;11.32;5.47;;;11.40;99.90;;;11.27;100.00;97053.81;5031890;28;20410;-72
2023/02/23 10:03:53;;;;;;;13.27;5.15;;;11.90;99.90;;;11.71;100.00;97050.66;5031665;28;20989;-72
2023/02/23 10:06:19;;;;;;;9.07;4.95;;;12.40;99.90;;;12.02;100.00;97057.56;5030656;28;20419;-72
2023/02/23 10:09:01;;;;;;;11.15;4.53;;;12.70;99.90;;;11.75;100.00;97057.03;5031777;28;20403;-72
2023/02/23 10:11:36;;;;;;;8.18;4.07;;;12.50;99.90;;;12.07;100.00;97054.88;5031414;28;20408;-72
2023/02/23 10:14:24;;;;;;;10.68;4.18;;;12.70;99.90;;;12.36;100.00;97055.88;5031566;28;20403;-72
2023/02/23 10:17:08;;;;;;;9.20;4.03;;;13.00;99.90;;;12.18;100.00;97050.38;5031655;28;20828;-72
2023/02/23 10:19:43;;;;;;;9.65;3.83;;;12.90;99.90;;;12.28;100.00;97047.66;5031405;28;20434;-72
2023/02/23 10:22:11;;;;;;;13.55;4.60;;;13.00;99.90;;;12.61;100.00;97051.56;5031241;28;20395;-72
2023/02/23 10:24:41;;;;;;;15.90;4.47;;;13.30;99.90;;;12.62;100.00;97047.84;5031417;28;20469;-71
2023/02/23 10:27:13;;;;;;;8.82;3.72;;;13.40;99.90;;;12.86;100.00;97058.59;5031516;28;20406;-72
2023/02/23 10:29:45;;;;;;;10.00;3.75;;;13.60;99.90;;;12.46;100.00;97054.25;5030107;28;20426;-72
2023/02/23 10:32:21;;;;;;;6.35;3.78;;;13.40;99.90;;;12.35;100.00;97054.28;5031156;28;20399;-72
2023/02/23 10:34:52;;;;;;;6.83;3.60;;;13.20;99.90;;;12.15;100.00;97056.19;5031444;28;20757;-72
2023/02/23 10:37:18;;;;;;;8.75;3.55;;;13.00;99.90;;;12.02;100.00;97054.91;5031347;28;20403;-72
2023/02/23 10:39:45;;;;;;;8.40;3.80;;;12.80;99.90;;;12.02;100.00;97052.25;5031193;28;20471;-72
2023/02/23 10:42:19;;;;;;;10.20;4.23;;;12.80;99.90;;;11.89;100.00;97048.25;5030816;28;20496;-72
2023/02/23 10:44:46;;;;;;;8.50;4.93;;;12.70;99.90;;;11.90;100.00;97055.16;5030989;28;20422;-72
2023/02/23 10:47:17;;;;;;;10.95;6.28;;;12.70;99.90;;;11.96;100.00;97048.78;5031047;28;20404;-72
2023/02/23 10:49:46;;;;;;;16.45;8.13;;;12.70;99.90;;;12.00;100.00;97055.16;5031101;28;20502;-72
2023/02/23 10:52:17;;;;;;;12.95;7.00;;;12.80;99.90;;;12.07;100.00;97048.78;5030615;28;20892;-72
2023/02/23 10:54:46;;;;;;;16.73;9.05;;;12.80;99.90;;;12.17;100.00;97056.72;5031086;28;20904;-72
2023/02/23 10:57:21;;;;;;;13.50;7.57;;;12.90;99.90;;;12.30;100.00;97049.00;5030913;28;20406;-72
2023/02/23 11:00:26;;;;;;;10.05;7.00;;;13.10;99.90;;;12.39;100.00;97051.91;5030914;28;20873;-72
2023/02/23 11:02:54;;;;;;;16.45;9.32;;;13.20;99.90;;;12.34;100.00;97057.19;5029814;28;20392;-72
2023/02/23 11:05:44;;;;;;;13.88;7.70;;;13.10;99.90;;;12.30;100.00;97051.66;5030657;28;20423;-72
2023/02/23 11:08:24;;;;;;;10.73;6.30;;;13.10;99.90;;;12.28;100.00;97052.97;5030574;28;20805;-72
2023/02/23 11:11:04;;;;;;;13.50;7.22;;;13.00;99.90;;;12.24;100.00;97049.28;5030592;28;20406;-72
2023/02/23 11:13:39;;;;;;;11.85;5.95;;;13.00;99.90;;;12.24;100.00;97044.78;5030484;28;20407;-72
2023/02/23 11:16:11;;;;;;;10.27;5.35;;;13.00;99.90;;;12.35;100.00;97045.53;5030669;28;20407;-72
2023/02/23 11:18:40;;;;;;;11.57;6.60;;;13.10;99.90;;;12.51;100.00;97047.06;5030489;28;20438;-72
2023/02/23 11:21:21;;;;;;;13.88;6.30;;;13.30;99.90;;;12.66;100.00;97046.22;5030414;28;20406;-72
2023/02/23 11:23:50;;;;;;;10.53;6.40;;;13.40;99.90;;;12.78;100.00;97044.00;5030466;28;21553;-72
2023/02/23 11:26:31;;;;;;;12.15;6.90;;;13.50;99.90;;;12.70;100.00;97040.09;5030509;28;20439;-72
2023/02/23 11:29:04;;;;;;;10.32;5.68;;;13.50;99.90;;;12.68;100.00;97036.13;5030414;28;20501;-72
2023/02/23 11:31:33;;;;;;;9.45;5.65;;;13.50;99.90;;;12.66;100.00;97031.06;5030285;28;20395;-71
2023/02/23 11:34:02;;;;;;;11.98;6.40;;;13.50;99.90;;;12.67;100.00;97024.69;5030319;28;20407;-71
2023/02/23 11:36:31;;;;;;;11.63;6.03;;;13.40;99.90;;;12.74;100.00;97025.19;5030341;28;20461;-71
2023/02/23 11:39:18;;;;;;;12.60;6.60;;;13.50;99.90;;;12.84;100.00;97020.91;5028938;28;20826;-71